^^
Station Historical Data
Daily Summary for Nil La, TWC- Units:  Metric    English   Both
« Previous Day
Next Day »
Daily Weekly Monthly Yearly Custom
  High: Low: Average:
Temperature: -17.8 °C 4.9 °C 7.7 °C
Dew Point: -17.8 °C -8.2 °C -6.9 °C
Humidity: Humidity% 31% 34%
Wind Speed: 0km/h 0km/h 6.8km/h
Wind Gust: 0km/h - -
Wind- - East
Pressure: 0 hPa 1024.9 hPa -
Precipitation: 0 mm    
Historical Graphs
 
 
Tabular Data for Nil La, TWC-
Time Temperature Dew Point Pressure Wind Wind Speed Wind Gust Humidity Rainfall Rate (Hourly) solar Conditions
-17.8 °C -17.8 °C 0 hPa Calm     Humidity% 0 mm SolarRadiationWatts/m^2 W/m2 Conditions
00:04 10.4 °C -5.2 °C 1025.6 hPa East 4.7 km/h 9.7 km/h 33% 0 mm 0.00 W/m2
00:08 10.4 °C -5.2 °C 1025.6 hPa East 1.4 km/h 4.8 km/h 33% 0 mm 0.00 W/m2
00:14 10.2 °C -5.4 °C 1025.6 hPa Calm   1.6 km/h 33% 0 mm 0.00 W/m2
00:18 10.1 °C -5.1 °C 1025.6 hPa East 3.2 km/h 4.8 km/h 34% 0 mm 0.00 W/m2
00:22 9.9 °C -5.2 °C 1025.6 hPa East 7.9 km/h 8 km/h 34% 0 mm 0.00 W/m2
00:29 9.9 °C -5.2 °C 1025.6 hPa East 3.2 km/h 6.4 km/h 34% 0 mm 0.00 W/m2
00:33 9.8 °C -5.3 °C 1025.6 hPa East 9.7 km/h 12.9 km/h 34% 0 mm 0.00 W/m2
00:39 9.7 °C -5 °C 1025.6 hPa East 7.9 km/h 11.3 km/h 35% 0 mm 0.00 W/m2
00:43 9.6 °C -5.1 °C 1026 hPa East 3.2 km/h 9.7 km/h 35% 0 mm 0.00 W/m2
00:49 9.3 °C -5.4 °C 1025.6 hPa Calm   1.6 km/h 35% 0 mm 0.00 W/m2
00:53 9.2 °C -5.5 °C 1026 hPa East 9.7 km/h 11.3 km/h 35% 0 mm 0.00 W/m2
00:57 9.2 °C -5.5 °C 1026 hPa East 1.4 km/h 9.7 km/h 35% 0 mm 0.00 W/m2
01:04 9.1 °C -5.2 °C 1026 hPa East 7.9 km/h 11.3 km/h 36% 0 mm 0.00 W/m2
01:08 9.2 °C -5.5 °C 1026 hPa East 4.7 km/h 12.9 km/h 35% 0 mm 0.00 W/m2
01:14 9.4 °C -5.3 °C 1025.6 hPa East 11.1 km/h 19.3 km/h 35% 0 mm 0.00 W/m2
01:18 9.5 °C -5.2 °C 1025.6 hPa East 11.1 km/h 16.1 km/h 35% 0 mm 0.00 W/m2
01:24 9.4 °C -5.3 °C 1025.6 hPa East 14.3 km/h 16.1 km/h 35% 0 mm 0.00 W/m2
01:28 9.3 °C -5.4 °C 1025.6 hPa East 7.9 km/h 14.5 km/h 35% 0 mm 0.00 W/m2
01:32 9.2 °C -5.5 °C 1025.6 hPa East 9.7 km/h 16.1 km/h 35% 0 mm 0.00 W/m2
01:38 8.9 °C -5.4 °C 1025.6 hPa East 13 km/h 16.1 km/h 36% 0 mm 0.00 W/m2
01:42 8.9 °C -5.4 °C 1025.6 hPa East 7.9 km/h 12.9 km/h 36% 0 mm 0.00 W/m2
01:49 8.8 °C -5.5 °C 1025.6 hPa East 6.4 km/h 11.3 km/h 36% 0 mm 0.00 W/m2
01:53 8.8 °C -5.5 °C 1025.6 hPa East 11.1 km/h 12.9 km/h 36% 0 mm 0.00 W/m2
01:59 8.7 °C -5.5 °C 1025.6 hPa East 7.9 km/h 11.3 km/h 36% 0 mm 0.00 W/m2
02:03 8.7 °C -5.9 °C 1025.6 hPa East 9.7 km/h 14.5 km/h 35% 0 mm 0.00 W/m2
02:09 8.7 °C -5.9 °C 1025.6 hPa East 11.1 km/h 12.9 km/h 35% 0 mm 0.00 W/m2
02:13 8.7 °C -5.9 °C 1025.6 hPa East 6.4 km/h 12.9 km/h 35% 0 mm 0.00 W/m2
02:19 8.7 °C -5.9 °C 1025.6 hPa East 7.9 km/h 8 km/h 35% 0 mm 0.00 W/m2
02:23 8.6 °C -6 °C 1025.6 hPa East 4.7 km/h 11.3 km/h 35% 0 mm 0.00 W/m2
02:29 8.4 °C -6.2 °C 1025.6 hPa East 7.9 km/h 11.3 km/h 35% 0 mm 0.00 W/m2
02:33 8.3 °C -6.3 °C 1025.6 hPa East 4.7 km/h 11.3 km/h 35% 0 mm 0.00 W/m2
02:39 8.4 °C -6.6 °C 1025.3 hPa East 1.4 km/h 11.3 km/h 34% 0 mm 0.00 W/m2
02:43 8.3 °C -7 °C 1025.3 hPa East 7.9 km/h 9.7 km/h 33% 0 mm 0.00 W/m2
02:48 8.3 °C -6.7 °C 1025.3 hPa East 6.4 km/h 11.3 km/h 34% 0 mm 0.00 W/m2
02:54 8.1 °C -6.8 °C 1025.3 hPa East 13 km/h 12.9 km/h 34% 0 mm 0.00 W/m2
02:58 8.1 °C -6.8 °C 1025.3 hPa East 6.4 km/h 11.3 km/h 34% 0 mm 0.00 W/m2
03:04 8.1 °C -7.2 °C 1025.3 hPa East 6.4 km/h 11.3 km/h 33% 0 mm 0.00 W/m2
03:08 8.2 °C -7.1 °C 1025.3 hPa East 3.2 km/h 9.7 km/h 33% 0 mm 0.00 W/m2
03:14 8.1 °C -7.2 °C 1025.3 hPa East 3.2 km/h 4.8 km/h 33% 0 mm 0.00 W/m2
03:18 7.9 °C -7.4 °C 1025.3 hPa East 4.7 km/h 6.4 km/h 33% 0 mm 0.00 W/m2
03:23 7.9 °C -7.4 °C 1025.3 hPa East 4.7 km/h 9.7 km/h 33% 0 mm 0.00 W/m2
03:29 8.2 °C -7.5 °C 1025.3 hPa East 7.9 km/h 8 km/h 32% 0 mm 0.00 W/m2
03:33 8.2 °C -7.5 °C 1025.3 hPa East 4.7 km/h 6.4 km/h 32% 0 mm 0.00 W/m2
03:39 8.1 °C -8 °C 1025.3 hPa East 7.9 km/h 8 km/h 31% 0 mm 0.00 W/m2
03:43 8 °C -8.1 °C 1025.3 hPa East 6.4 km/h 8 km/h 31% 0 mm 0.00 W/m2
03:49 8 °C -8.1 °C 1025.3 hPa East 11.1 km/h 12.9 km/h 31% 0 mm 0.00 W/m2
03:53 7.9 °C -7.8 °C 1025.3 hPa East 6.4 km/h 11.3 km/h 32% 0 mm 0.00 W/m2
03:58 7.9 °C -7.8 °C 1025.3 hPa East 9.7 km/h 11.3 km/h 32% 0 mm 0.00 W/m2
04:04 7.9 °C -7.8 °C 1025.3 hPa East 4.7 km/h 8 km/h 32% 0 mm 0.00 W/m2
04:08 7.9 °C -8.2 °C 1025.3 hPa East 1.4 km/h 6.4 km/h 31% 0 mm 0.00 W/m2
04:14 7.7 °C -8 °C 1024.9 hPa East 3.2 km/h 6.4 km/h 32% 0 mm 0.00 W/m2
04:18 7.6 °C -8.1 °C 1024.9 hPa East 3.2 km/h 4.8 km/h 32% 0 mm 0.00 W/m2
04:24 7.4 °C -7.8 °C 1024.9 hPa East 4.7 km/h 6.4 km/h 33% 0 mm 0.00 W/m2
04:28 7.2 °C -8 °C 1024.9 hPa East 3.2 km/h 9.7 km/h 33% 0 mm 0.00 W/m2
04:34 7.1 °C -8.1 °C 1024.9 hPa East 6.4 km/h 9.7 km/h 33% 0 mm 0.00 W/m2
04:39 7.1 °C -8.1 °C 1024.9 hPa East 4.7 km/h 8 km/h 33% 0 mm 0.00 W/m2
04:43 7.2 °C -7.6 °C 1024.9 hPa East 4.7 km/h 8 km/h 34% 0 mm 0.00 W/m2
04:49 7.3 °C -7.5 °C 1024.9 hPa East 6.4 km/h 8 km/h 34% 0 mm 0.00 W/m2
04:53 7.4 °C -7.4 °C 1024.9 hPa East 9.7 km/h 14.5 km/h 34% 0 mm 0.00 W/m2
04:59 7.5 °C -7.7 °C 1024.9 hPa East 7.9 km/h 9.7 km/h 33% 0 mm 0.00 W/m2
05:03 7.5 °C -7.7 °C 1024.9 hPa East 9.7 km/h 14.5 km/h 33% 0 mm 0.00 W/m2
05:09 7.3 °C -7.5 °C 1024.9 hPa ENE 4.7 km/h 14.5 km/h 34% 0 mm 0.00 W/m2
05:13 7.2 °C -7.6 °C 1024.9 hPa ENE 7.9 km/h 16.1 km/h 34% 0 mm 0.00 W/m2
05:17 7.1 °C -7.7 °C 1024.9 hPa ENE 4.7 km/h 9.7 km/h 34% 0 mm 0.00 W/m2
05:24 6.9 °C -7.9 °C 1024.9 hPa ENE 6.4 km/h 12.9 km/h 34% 0 mm 0.00 W/m2
05:28 6.9 °C -7.9 °C 1024.9 hPa ENE 11.1 km/h 14.5 km/h 34% 0 mm 0.00 W/m2
05:34 6.8 °C -7.6 °C 1024.9 hPa ENE 11.1 km/h 12.9 km/h 35% 0 mm 0.00 W/m2
05:38 6.8 °C -7.6 °C 1024.9 hPa ENE 11.1 km/h 11.3 km/h 35% 0 mm 0.00 W/m2
05:44 6.6 °C -7.8 °C 1024.9 hPa ENE 6.4 km/h 12.9 km/h 35% 0 mm 0.00 W/m2
05:48 6.6 °C -7.4 °C 1024.9 hPa ENE 9.7 km/h 14.5 km/h 36% 0 mm 0.00 W/m2
05:54 6.5 °C -7.5 °C 1024.9 hPa ENE 9.7 km/h 12.9 km/h 36% 0 mm 0.00 W/m2
05:58 6.4 °C -7.6 °C 1024.9 hPa ENE 4.7 km/h 11.3 km/h 36% 0 mm 0.00 W/m2
06:03 6.3 °C -7.7 °C 1025.3 hPa ENE 6.4 km/h 12.9 km/h 36% 0 mm 0.00 W/m2
06:09 6.2 °C -7.8 °C 1024.9 hPa ENE 6.4 km/h 11.3 km/h 36% 0 mm 0.00 W/m2
06:13 6.2 °C -7.4 °C 1025.3 hPa ENE 4.7 km/h 11.3 km/h 37% 0 mm 0.00 W/m2
06:19 6 °C -7.6 °C 1025.3 hPa ENE 9.7 km/h 12.9 km/h 37% 0 mm 0.00 W/m2
06:23 5.8 °C -7.8 °C 1025.3 hPa ENE 7.9 km/h 12.9 km/h 37% 0 mm 0.00 W/m2
06:29 5.4 °C -7.8 °C 1025.3 hPa ENE 6.4 km/h 12.9 km/h 38% 0 mm 0.00 W/m2
06:33 5.2 °C -8 °C 1025.3 hPa ENE 9.7 km/h 12.9 km/h 38% 0 mm 0.00 W/m2
06:39 4.9 °C -7.9 °C 1025.3 hPa ENE 7.9 km/h 11.3 km/h 39% 0 mm 0.00 W/m2
06:44 4.9 °C -7.6 °C 1025.3 hPa ENE 4.7 km/h 9.7 km/h 40% 0 mm 0.00 W/m2
Canyon Roadhouse, Fishriver Canyon, Namibia
Compliments of Weather Underground - 2 mb